sensor_id;sensor_type;location;lat;lon;timestamp;pressure;altitude;pressure_sealevel;temperature;humidity
54512;BME280;40419;47.438;19.026;2023-03-15T00:01:20;98633.88;;;9.07;100.00
54512;BME280;40419;47.438;19.026;2023-03-15T00:03:48;98636.88;;;9.17;100.00
54512;BME280;40419;47.438;19.026;2023-03-15T00:06:17;98638.09;;;9.21;100.00
54512;BME280;40419;47.438;19.026;2023-03-15T00:08:44;98655.78;;;9.17;100.00
54512;BME280;40419;47.438;19.026;2023-03-15T00:11:12;98650.84;;;9.14;100.00
54512;BME280;40419;47.438;19.026;2023-03-15T00:13:46;98649.84;;;9.08;100.00
54512;BME280;40419;47.438;19.026;2023-03-15T00:16:15;98652.78;;;9.07;100.00
54512;BME280;40419;47.438;19.026;2023-03-15T00:18:49;98660.06;;;9.06;100.00
54512;BME280;40419;47.438;19.026;2023-03-15T00:21:15;98664.31;;;8.95;100.00
54512;BME280;40419;47.438;19.026;2023-03-15T00:23:40;98653.28;;;8.97;100.00
54512;BME280;40419;47.438;19.026;2023-03-15T00:26:09;98650.06;;;9.07;100.00
54512;BME280;40419;47.438;19.026;2023-03-15T00:28:34;98654.00;;;9.11;100.00
54512;BME280;40419;47.438;19.026;2023-03-15T00:31:04;98648.28;;;9.00;100.00
54512;BME280;40419;47.438;19.026;2023-03-15T00:33:30;98632.28;;;8.99;100.00
54512;BME280;40419;47.438;19.026;2023-03-15T00:36:05;98637.25;;;9.02;100.00
54512;BME280;40419;47.438;19.026;2023-03-15T00:38:32;98638.69;;;9.04;100.00
54512;BME280;40419;47.438;19.026;2023-03-15T00:41:13;98633.63;;;8.90;100.00
54512;BME280;40419;47.438;19.026;2023-03-15T00:43:42;98641.66;;;8.96;100.00
54512;BME280;40419;47.438;19.026;2023-03-15T00:46:14;98624.75;;;8.82;100.00
54512;BME280;40419;47.438;19.026;2023-03-15T00:48:42;98620.56;;;8.86;100.00
54512;BME280;40419;47.438;19.026;2023-03-15T00:51:13;98612.03;;;8.90;100.00
54512;BME280;40419;47.438;19.026;2023-03-15T00:53:41;98633.44;;;8.84;100.00
54512;BME280;40419;47.438;19.026;2023-03-15T00:56:10;98630.22;;;8.76;100.00
54512;BME280;40419;47.438;19.026;2023-03-15T00:58:37;98629.22;;;8.95;97.93
54512;BME280;40419;47.438;19.026;2023-03-15T01:01:12;98629.50;;;8.87;98.90
54512;BME280;40419;47.438;19.026;2023-03-15T01:03:39;98633.19;;;8.67;98.37
54512;BME280;40419;47.438;19.026;2023-03-15T01:06:09;98628.13;;;8.78;96.84
54512;BME280;40419;47.438;19.026;2023-03-15T01:08:37;98626.78;;;8.87;97.63
54512;BME280;40419;47.438;19.026;2023-03-15T01:11:05;98632.53;;;8.72;97.30
54512;BME280;40419;47.438;19.026;2023-03-15T01:13:33;98635.44;;;8.71;95.33
54512;BME280;40419;47.438;19.026;2023-03-15T01:15:59;98635.28;;;8.65;94.53
54512;BME280;40419;47.438;19.026;2023-03-15T01:18:25;98629.50;;;8.62;94.92
54512;BME280;40419;47.438;19.026;2023-03-15T01:20:50;98636.47;;;8.69;94.72
54512;BME280;40419;47.438;19.026;2023-03-15T01:23:23;98636.69;;;8.68;95.25
54512;BME280;40419;47.438;19.026;2023-03-15T01:25:52;98644.78;;;8.68;93.59
54512;BME280;40419;47.438;19.026;2023-03-15T01:28:18;98641.72;;;8.64;92.16
54512;BME280;40419;47.438;19.026;2023-03-15T01:30:51;98629.50;;;8.62;93.11
54512;BME280;40419;47.438;19.026;2023-03-15T01:33:17;98634.13;;;8.55;91.65
54512;BME280;40419;47.438;19.026;2023-03-15T01:35:57;98635.28;;;8.65;90.73
54512;BME280;40419;47.438;19.026;2023-03-15T01:38:23;98624.16;;;8.55;92.10
54512;BME280;40419;47.438;19.026;2023-03-15T01:40:51;98625.03;;;8.49;90.81
54512;BME280;40419;47.438;19.026;2023-03-15T01:43:22;98628.59;;;8.43;92.44
54512;BME280;40419;47.438;19.026;2023-03-15T01:48:41;98631.50;;;8.41;91.91
54512;BME280;40419;47.438;19.026;2023-03-15T01:51:23;98619.44;;;8.50;92.09
54512;BME280;40419;47.438;19.026;2023-03-15T01:56:21;98613.84;;;8.45;92.24
54512;BME280;40419;47.438;19.026;2023-03-15T01:58:48;98618.06;;;8.34;91.99
54512;BME280;40419;47.438;19.026;2023-03-15T02:01:16;98615.31;;;8.41;92.03
54512;BME280;40419;47.438;19.026;2023-03-15T02:03:46;98616.59;;;8.39;91.82
54512;BME280;40419;47.438;19.026;2023-03-15T02:06:17;98601.22;;;8.39;92.19
54512;BME280;40419;47.438;19.026;2023-03-15T02:08:53;98613.94;;;8.32;93.55
54512;BME280;40419;47.438;19.026;2023-03-15T02:11:24;98613.88;;;8.39;93.04
54512;BME280;40419;47.438;19.026;2023-03-15T02:13:51;98604.63;;;8.28;94.07
54512;BME280;40419;47.438;19.026;2023-03-15T02:16:19;98614.81;;;8.26;93.51
54512;BME280;40419;47.438;19.026;2023-03-15T02:18:53;98625.63;;;8.19;94.38
54512;BME280;40419;47.438;19.026;2023-03-15T02:26:47;98621.50;;;8.16;94.09
54512;BME280;40419;47.438;19.026;2023-03-15T02:29:19;98613.03;;;8.13;94.04
54512;BME280;40419;47.438;19.026;2023-03-15T02:31:47;98614.03;;;8.19;94.17
54512;BME280;40419;47.438;19.026;2023-03-15T02:34:15;98623.81;;;8.13;93.82
54512;BME280;40419;47.438;19.026;2023-03-15T02:36:43;98613.84;;;8.13;94.36
54512;BME280;40419;47.438;19.026;2023-03-15T02:39:20;98620.72;;;8.09;93.85
54512;BME280;40419;47.438;19.026;2023-03-15T02:41:57;98615.50;;;8.14;93.36
54512;BME280;40419;47.438;19.026;2023-03-15T02:44:33;98621.34;;;8.11;94.58
54512;BME280;40419;47.438;19.026;2023-03-15T02:47:17;98620.31;;;8.06;93.92
54512;BME280;40419;47.438;19.026;2023-03-15T02:49:49;98634.00;;;8.04;95.67
54512;BME280;40419;47.438;19.026;2023-03-15T02:52:18;98634.00;;;8.04;96.04
54512;BME280;40419;47.438;19.026;2023-03-15T02:54:46;98635.53;;;7.93;97.07
54512;BME280;40419;47.438;19.026;2023-03-15T02:57:13;98640.47;;;8.03;96.11
54512;BME280;40419;47.438;19.026;2023-03-15T02:59:40;98645.59;;;8.11;96.21
54512;BME280;40419;47.438;19.026;2023-03-15T03:02:13;98641.88;;;8.12;95.59
54512;BME280;40419;47.438;19.026;2023-03-15T03:04:41;98642.25;;;8.16;96.00
54512;BME280;40419;47.438;19.026;2023-03-15T03:07:10;98628.81;;;8.09;96.26
54512;BME280;40419;47.438;19.026;2023-03-15T03:09:48;98633.81;;;8.06;96.85
54512;BME280;40419;47.438;19.026;2023-03-15T03:12:19;98628.59;;;8.11;95.66
54512;BME280;40419;47.438;19.026;2023-03-15T03:14:46;98624.91;;;8.05;95.37
54512;BME280;40419;47.438;19.026;2023-03-15T03:17:17;98621.94;;;8.13;94.19
54512;BME280;40419;47.438;19.026;2023-03-15T03:19:45;98621.13;;;8.13;94.26
54512;BME280;40419;47.438;19.026;2023-03-15T03:22:12;98620.28;;;8.12;94.88
54512;BME280;40419;47.438;19.026;2023-03-15T03:24:41;98630.22;;;8.19;92.31
54512;BME280;40419;47.438;19.026;2023-03-15T03:27:14;98617.19;;;8.09;90.18
54512;BME280;40419;47.438;19.026;2023-03-15T03:29:43;98628.56;;;8.18;87.41
54512;BME280;40419;47.438;19.026;2023-03-15T03:32:12;98633.94;;;8.18;85.79
54512;BME280;40419;47.438;19.026;2023-03-15T03:34:38;98622.00;;;8.07;85.80
54512;BME280;40419;47.438;19.026;2023-03-15T03:37:03;98630.88;;;8.14;84.30
54512;BME280;40419;47.438;19.026;2023-03-15T03:39:48;98632.94;;;8.12;83.61
54512;BME280;40419;47.438;19.026;2023-03-15T03:42:15;98631.84;;;8.20;83.31
54512;BME280;40419;47.438;19.026;2023-03-15T03:44:42;98635.59;;;8.19;81.30
54512;BME280;40419;47.438;19.026;2023-03-15T03:47:08;98616.97;;;8.10;81.08
54512;BME280;40419;47.438;19.026;2023-03-15T03:49:36;98619.00;;;8.15;81.00
54512;BME280;40419;47.438;19.026;2023-03-15T03:52:02;98624.03;;;8.11;81.74
54512;BME280;40419;47.438;19.026;2023-03-15T03:54:28;98613.69;;;8.08;83.30
54512;BME280;40419;47.438;19.026;2023-03-15T03:56:56;98619.94;;;8.02;83.88
54512;BME280;40419;47.438;19.026;2023-03-15T03:59:28;98611.44;;;7.98;82.88
54512;BME280;40419;47.438;19.026;2023-03-15T04:02:02;98608.97;;;7.97;85.38
54512;BME280;40419;47.438;19.026;2023-03-15T04:04:29;98611.66;;;7.97;85.32
54512;BME280;40419;47.438;19.026;2023-03-15T04:06:54;98627.22;;;7.95;86.24
54512;BME280;40419;47.438;19.026;2023-03-15T04:09:24;98640.13;;;7.86;87.36
54512;BME280;40419;47.438;19.026;2023-03-15T04:11:51;98634.56;;;7.81;87.22
54512;BME280;40419;47.438;19.026;2023-03-15T04:14:18;98637.44;;;7.86;86.69
54512;BME280;40419;47.438;19.026;2023-03-15T04:16:46;98629.34;;;7.86;87.84
54512;BME280;40419;47.438;19.026;2023-03-15T04:19:17;98642.59;;;7.88;86.05
54512;BME280;40419;47.438;19.026;2023-03-15T04:21:43;98651.97;;;7.85;87.88
54512;BME280;40419;47.438;19.026;2023-03-15T04:24:23;98650.84;;;7.99;84.66
54512;BME280;40419;47.438;19.026;2023-03-15T04:26:58;98669.75;;;7.93;84.30
54512;BME280;40419;47.438;19.026;2023-03-15T04:29:43;98676.78;;;7.94;85.05
54512;BME280;40419;47.438;19.026;2023-03-15T04:32:40;98675.38;;;7.85;85.38
54512;BME280;40419;47.438;19.026;2023-03-15T04:35:31;98670.47;;;7.68;86.25
54512;BME280;40419;47.438;19.026;2023-03-15T04:38:08;98670.69;;;7.67;85.51
54512;BME280;40419;47.438;19.026;2023-03-15T04:40:43;98678.75;;;7.67;85.06
54512;BME280;40419;47.438;19.026;2023-03-15T04:43:32;98682.97;;;7.49;86.22
54512;BME280;40419;47.438;19.026;2023-03-15T04:46:16;98695.16;;;7.52;85.58
54512;BME280;40419;47.438;19.026;2023-03-15T04:49:05;98704.34;;;7.37;85.56
54512;BME280;40419;47.438;19.026;2023-03-15T04:51:55;98706.44;;;7.35;84.44
54512;BME280;40419;47.438;19.026;2023-03-15T04:54:43;98708.69;;;7.38;84.83
54512;BME280;40419;47.438;19.026;2023-03-15T04:57:47;98705.59;;;7.21;86.64
54512;BME280;40419;47.438;19.026;2023-03-15T05:00:44;98702.72;;;7.16;87.76
54512;BME280;40419;47.438;19.026;2023-03-15T05:03:27;98707.91;;;7.11;86.96
54512;BME280;40419;47.438;19.026;2023-03-15T05:06:02;98696.09;;;7.05;85.93
54512;BME280;40419;47.438;19.026;2023-03-15T05:08:48;98691.56;;;6.86;85.90
54512;BME280;40419;47.438;19.026;2023-03-15T05:11:24;98687.41;;;6.83;86.31
54512;BME280;40419;47.438;19.026;2023-03-15T05:14:08;98681.41;;;6.74;85.23
54512;BME280;40419;47.438;19.026;2023-03-15T05:16:56;98685.75;;;6.76;86.36
54512;BME280;40419;47.438;19.026;2023-03-15T05:19:44;98689.66;;;6.60;87.97
54512;BME280;40419;47.438;19.026;2023-03-15T05:22:43;98673.34;;;6.48;87.79
54512;BME280;40419;47.438;19.026;2023-03-15T05:25:47;98674.56;;;6.52;88.22
54512;BME280;40419;47.438;19.026;2023-03-15T05:28:45;98668.97;;;6.53;87.76
54512;BME280;40419;47.438;19.026;2023-03-15T05:31:17;98672.28;;;6.29;89.51
54512;BME280;40419;47.438;19.026;2023-03-15T05:34:01;98669.34;;;6.17;89.56
54512;BME280;40419;47.438;19.026;2023-03-15T05:36:38;98675.13;;;6.07;90.39
54512;BME280;40419;47.438;19.026;2023-03-15T05:39:17;98669.34;;;6.10;91.34
54512;BME280;40419;47.438;19.026;2023-03-15T05:42:04;98674.28;;;6.00;91.59
54512;BME280;40419;47.438;19.026;2023-03-15T05:44:35;98671.16;;;5.96;91.85
54512;BME280;40419;47.438;19.026;2023-03-15T05:47:30;98682.94;;;6.02;92.91
54512;BME280;40419;47.438;19.026;2023-03-15T05:50:07;98690.84;;;6.10;91.99
54512;BME280;40419;47.438;19.026;2023-03-15T05:53:02;98688.16;;;6.10;92.78
54512;BME280;40419;47.438;19.026;2023-03-15T05:55:46;98696.88;;;6.19;92.81
54512;BME280;40419;47.438;19.026;2023-03-15T05:58:32;98686.81;;;5.86;94.25
54512;BME280;40419;47.438;19.026;2023-03-15T06:01:16;98692.06;;;6.01;93.85
54512;BME280;40419;47.438;19.026;2023-03-15T06:04:16;98695.91;;;5.92;95.15
54512;BME280;40419;47.438;19.026;2023-03-15T06:06:49;98705.00;;;5.91;96.08
54512;BME280;40419;47.438;19.026;2023-03-15T06:09:20;98712.41;;;5.89;95.73
54512;BME280;40419;47.438;19.026;2023-03-15T06:11:46;98712.50;;;6.02;96.03
54512;BME280;40419;47.438;19.026;2023-03-15T06:14:12;98715.84;;;6.04;95.47
54512;BME280;40419;47.438;19.026;2023-03-15T06:16:47;98721.44;;;6.09;95.88
54512;BME280;40419;47.438;19.026;2023-03-15T06:19:13;98716.25;;;6.08;96.24
54512;BME280;40419;47.438;19.026;2023-03-15T06:21:40;98722.25;;;6.03;95.90
54512;BME280;40419;47.438;19.026;2023-03-15T06:24:12;98724.94;;;6.03;95.95
54512;BME280;40419;47.438;19.026;2023-03-15T06:26:38;98733.44;;;6.13;96.41
54512;BME280;40419;47.438;19.026;2023-03-15T06:29:04;98730.09;;;6.11;97.11
54512;BME280;40419;47.438;19.026;2023-03-15T06:31:32;98725.34;;;6.07;97.56
54512;BME280;40419;47.438;19.026;2023-03-15T06:34:02;98726.00;;;6.15;97.55
54512;BME280;40419;47.438;19.026;2023-03-15T06:36:34;98742.16;;;6.29;97.99
54512;BME280;40419;47.438;19.026;2023-03-15T06:39:03;98747.13;;;6.38;96.55
54512;BME280;40419;47.438;19.026;2023-03-15T06:41:31;98745.72;;;6.43;96.02
54512;BME280;40419;47.438;19.026;2023-03-15T06:44:04;98738.88;;;6.40;95.19
54512;BME280;40419;47.438;19.026;2023-03-15T06:46:30;98745.09;;;6.47;97.03
54512;BME280;40419;47.438;19.026;2023-03-15T06:48:56;98740.38;;;6.63;95.59
54512;BME280;40419;47.438;19.026;2023-03-15T06:51:24;98750.09;;;6.57;96.39
54512;BME280;40419;47.438;19.026;2023-03-15T06:53:53;98750.75;;;6.66;93.46
54512;BME280;40419;47.438;19.026;2023-03-15T06:56:19;98761.50;;;6.72;94.72
54512;BME280;40419;47.438;19.026;2023-03-15T06:58:45;98770.16;;;6.48;93.62
54512;BME280;40419;47.438;19.026;2023-03-15T07:01:14;98768.13;;;6.77;90.42
54512;BME280;40419;47.438;19.026;2023-03-15T07:03:40;98769.09;;;6.49;89.95
54512;BME280;40419;47.438;19.026;2023-03-15T07:06:06;98770.75;;;6.43;93.22
54512;BME280;40419;47.438;19.026;2023-03-15T07:08:31;98778.63;;;6.51;95.28
54512;BME280;40419;47.438;19.026;2023-03-15T07:11:01;98773.03;;;6.60;92.94
54512;BME280;40419;47.438;19.026;2023-03-15T07:13:27;98776.19;;;6.63;91.32
54512;BME280;40419;47.438;19.026;2023-03-15T07:15:53;98786.28;;;6.61;90.60
54512;BME280;40419;47.438;19.026;2023-03-15T07:18:21;98789.00;;;6.74;87.28
54512;BME280;40419;47.438;19.026;2023-03-15T07:20:46;98790.47;;;6.70;88.52
54512;BME280;40419;47.438;19.026;2023-03-15T07:23:12;98799.69;;;6.41;87.80
54512;BME280;40419;47.438;19.026;2023-03-15T07:25:37;98798.19;;;6.25;89.53
54512;BME280;40419;47.438;19.026;2023-03-15T07:28:03;98799.03;;;6.32;89.09
54512;BME280;40419;47.438;19.026;2023-03-15T07:30:29;98797.81;;;6.28;91.28
54512;BME280;40419;47.438;19.026;2023-03-15T07:32:56;98799.28;;;6.37;90.79
54512;BME280;40419;47.438;19.026;2023-03-15T07:35:27;98817.03;;;6.25;87.66
54512;BME280;40419;47.438;19.026;2023-03-15T07:37:53;98807.09;;;6.32;90.59
54512;BME280;40419;47.438;19.026;2023-03-15T07:40:19;98812.53;;;6.46;89.79
54512;BME280;40419;47.438;19.026;2023-03-15T07:42:46;98808.00;;;6.53;88.46
54512;BME280;40419;47.438;19.026;2023-03-15T07:45:12;98808.81;;;6.53;86.21
54512;BME280;40419;47.438;19.026;2023-03-15T07:47:38;98817.75;;;6.61;86.21
54512;BME280;40419;47.438;19.026;2023-03-15T07:50:04;98812.59;;;6.66;85.07
54512;BME280;40419;47.438;19.026;2023-03-15T07:52:33;98806.59;;;6.64;85.87
54512;BME280;40419;47.438;19.026;2023-03-15T07:55:00;98797.25;;;6.46;84.75
54512;BME280;40419;47.438;19.026;2023-03-15T07:57:26;98807.19;;;6.59;85.56
54512;BME280;40419;47.438;19.026;2023-03-15T07:59:53;98805.53;;;6.58;85.81
54512;BME280;40419;47.438;19.026;2023-03-15T08:02:24;98811.09;;;6.56;84.76
54512;BME280;40419;47.438;19.026;2023-03-15T08:04:53;98814.44;;;6.59;85.26
54512;BME280;40419;47.438;19.026;2023-03-15T08:07:18;98822.75;;;6.70;83.58
54512;BME280;40419;47.438;19.026;2023-03-15T08:09:44;98815.88;;;6.61;85.29
54512;BME280;40419;47.438;19.026;2023-03-15T08:12:13;98814.66;;;6.57;83.03
54512;BME280;40419;47.438;19.026;2023-03-15T08:14:39;98821.00;;;6.36;82.79
54512;BME280;40419;47.438;19.026;2023-03-15T08:17:04;98820.34;;;6.34;82.95
54512;BME280;40419;47.438;19.026;2023-03-15T08:19:30;98820.78;;;6.44;82.25
54512;BME280;40419;47.438;19.026;2023-03-15T08:21:58;98831.75;;;6.43;82.05
54512;BME280;40419;47.438;19.026;2023-03-15T08:24:26;98830.72;;;6.44;82.16
54512;BME280;40419;47.438;19.026;2023-03-15T08:26:54;98830.13;;;6.48;80.44
54512;BME280;40419;47.438;19.026;2023-03-15T08:29:20;98834.50;;;6.49;80.70
54512;BME280;40419;47.438;19.026;2023-03-15T08:31:45;98833.44;;;6.44;81.68
54512;BME280;40419;47.438;19.026;2023-03-15T08:34:11;98836.47;;;6.34;79.48
54512;BME280;40419;47.438;19.026;2023-03-15T08:36:37;98847.03;;;6.35;81.67
54512;BME280;40419;47.438;19.026;2023-03-15T08:39:03;98860.31;;;6.44;78.71
54512;BME280;40419;47.438;19.026;2023-03-15T08:41:30;98854.94;;;6.44;79.42
54512;BME280;40419;47.438;19.026;2023-03-15T08:43:59;98858.25;;;6.46;79.09
54512;BME280;40419;47.438;19.026;2023-03-15T08:46:27;98861.72;;;6.39;77.93
54512;BME280;40419;47.438;19.026;2023-03-15T08:48:53;98872.53;;;6.46;77.62
54512;BME280;40419;47.438;19.026;2023-03-15T08:51:21;98880.63;;;6.60;77.46
54512;BME280;40419;47.438;19.026;2023-03-15T08:53:49;98889.94;;;6.57;77.01
54512;BME280;40419;47.438;19.026;2023-03-15T08:56:16;98892.78;;;6.49;77.51
54512;BME280;40419;47.438;19.026;2023-03-15T08:58:44;98900.03;;;6.42;75.11
54512;BME280;40419;47.438;19.026;2023-03-15T09:01:11;98905.22;;;6.50;74.41
54512;BME280;40419;47.438;19.026;2023-03-15T09:03:36;98908.66;;;6.37;74.67
54512;BME280;40419;47.438;19.026;2023-03-15T09:06:02;98915.91;;;6.36;75.05
54512;BME280;40419;47.438;19.026;2023-03-15T09:08:30;98916.59;;;6.45;74.61
54512;BME280;40419;47.438;19.026;2023-03-15T09:10:58;98931.56;;;6.26;75.80
54512;BME280;40419;47.438;19.026;2023-03-15T09:13:31;98927.03;;;6.27;75.56
54512;BME280;40419;47.438;19.026;2023-03-15T09:15:59;98935.13;;;6.33;76.31
54512;BME280;40419;47.438;19.026;2023-03-15T09:18:25;98942.13;;;6.28;75.94
54512;BME280;40419;47.438;19.026;2023-03-15T09:20:53;98939.28;;;6.36;74.76
54512;BME280;40419;47.438;19.026;2023-03-15T09:23:19;98949.00;;;6.37;75.80
54512;BME280;40419;47.438;19.026;2023-03-15T09:25:45;98945.06;;;6.33;75.13
54512;BME280;40419;47.438;19.026;2023-03-15T09:28:12;98950.94;;;6.15;78.48
54512;BME280;40419;47.438;19.026;2023-03-15T09:30:40;98952.72;;;6.01;75.18
54512;BME280;40419;47.438;19.026;2023-03-15T09:33:06;98957.16;;;5.94;75.37
54512;BME280;40419;47.438;19.026;2023-03-15T09:35:35;98959.72;;;6.02;75.06
54512;BME280;40419;47.438;19.026;2023-03-15T09:38:06;98980.50;;;6.15;75.60
54512;BME280;40419;47.438;19.026;2023-03-15T09:40:37;98973.84;;;6.11;74.70
54512;BME280;40419;47.438;19.026;2023-03-15T09:48:22;98981.13;;;6.17;72.66
54512;BME280;40419;47.438;19.026;2023-03-15T09:50:53;98969.41;;;6.25;72.35
54512;BME280;40419;47.438;19.026;2023-03-15T09:53:55;98977.22;;;6.19;72.44
54512;BME280;40419;47.438;19.026;2023-03-15T09:56:26;98973.25;;;6.15;72.17
54512;BME280;40419;47.438;19.026;2023-03-15T09:58:56;98972.38;;;6.08;72.70
54512;BME280;40419;47.438;19.026;2023-03-15T10:01:36;98972.78;;;6.05;72.21
54512;BME280;40419;47.438;19.026;2023-03-15T10:04:09;98982.59;;;6.19;74.08
54512;BME280;40419;47.438;19.026;2023-03-15T10:06:44;98984.59;;;6.11;73.11
54512;BME280;40419;47.438;19.026;2023-03-15T10:09:19;98985.19;;;6.06;74.21
54512;BME280;40419;47.438;19.026;2023-03-15T10:12:14;98985.09;;;6.21;71.83
54512;BME280;40419;47.438;19.026;2023-03-15T10:18:32;98993.78;;;6.23;71.00
54512;BME280;40419;47.438;19.026;2023-03-15T10:20:31;98996.44;;;6.16;69.53
54512;BME280;40419;47.438;19.026;2023-03-15T10:25:39;98995.25;;;6.26;69.48
54512;BME280;40419;47.438;19.026;2023-03-15T10:30:33;98997.44;;;6.44;71.28
54512;BME280;40419;47.438;19.026;2023-03-15T10:35:48;99011.41;;;6.32;67.64
54512;BME280;40419;47.438;19.026;2023-03-15T10:38:20;99015.06;;;6.46;67.25
54512;BME280;40419;47.438;19.026;2023-03-15T10:45:45;99032.25;;;6.52;69.01
54512;BME280;40419;47.438;19.026;2023-03-15T10:48:13;99030.31;;;6.74;67.29
54512;BME280;40419;47.438;19.026;2023-03-15T10:50:39;99020.38;;;6.74;68.03
54512;BME280;40419;47.438;19.026;2023-03-15T10:53:09;99034.75;;;6.88;66.47
54512;BME280;40419;47.438;19.026;2023-03-15T10:55:44;99035.19;;;6.92;66.11
54512;BME280;40419;47.438;19.026;2023-03-15T11:00:51;99052.06;;;7.14;64.62
54512;BME280;40419;47.438;19.026;2023-03-15T11:03:22;99044.41;;;7.18;63.60
54512;BME280;40419;47.438;19.026;2023-03-15T11:05:51;99043.06;;;7.00;63.84
54512;BME280;40419;47.438;19.026;2023-03-15T11:08:21;99050.44;;;6.78;64.70
54512;BME280;40419;47.438;19.026;2023-03-15T11:10:58;99053.44;;;7.03;63.11
54512;BME280;40419;47.438;19.026;2023-03-15T11:13:26;99056.19;;;7.10;63.31
54512;BME280;40419;47.438;19.026;2023-03-15T11:18:42;99061.88;;;7.35;65.40
54512;BME280;40419;47.438;19.026;2023-03-15T11:21:15;99068.25;;;7.27;62.42
54512;BME280;40419;47.438;19.026;2023-03-15T11:23:48;99060.56;;;7.18;62.72
54512;BME280;40419;47.438;19.026;2023-03-15T11:26:25;99064.06;;;7.12;63.63
54512;BME280;40419;47.438;19.026;2023-03-15T11:28:59;99069.31;;;7.26;63.51
54512;BME280;40419;47.438;19.026;2023-03-15T11:31:27;99066.34;;;7.21;62.96
54512;BME280;40419;47.438;19.026;2023-03-15T11:34:07;99065.75;;;7.26;61.42
54512;BME280;40419;47.438;19.026;2023-03-15T11:36:37;99064.53;;;7.22;62.60
54512;BME280;40419;47.438;19.026;2023-03-15T11:39:04;99068.16;;;7.49;60.69
54512;BME280;40419;47.438;19.026;2023-03-15T11:41:54;99068.56;;;7.53;62.71
54512;BME280;40419;47.438;19.026;2023-03-15T11:44:38;99061.34;;;7.60;60.44
54512;BME280;40419;47.438;19.026;2023-03-15T11:49:55;99071.91;;;7.61;60.30
54512;BME280;40419;47.438;19.026;2023-03-15T11:52:29;99069.38;;;7.53;60.21
54512;BME280;40419;47.438;19.026;2023-03-15T11:55:00;99073.19;;;7.72;60.46
54512;BME280;40419;47.438;19.026;2023-03-15T11:59:56;99073.50;;;7.42;59.45
54512;BME280;40419;47.438;19.026;2023-03-15T12:04:54;99085.78;;;7.65;59.31
54512;BME280;40419;47.438;19.026;2023-03-15T12:20:37;99100.13;;;7.72;60.73
54512;BME280;40419;47.438;19.026;2023-03-15T12:31:06;99103.50;;;8.01;56.70
54512;BME280;40419;47.438;19.026;2023-03-15T12:33:43;99091.88;;;7.87;58.01
54512;BME280;40419;47.438;19.026;2023-03-15T12:36:34;99110.94;;;7.79;57.46
54512;BME280;40419;47.438;19.026;2023-03-15T12:41:50;99098.47;;;7.78;57.15
54512;BME280;40419;47.438;19.026;2023-03-15T12:49:26;99100.56;;;7.83;56.60
54512;BME280;40419;47.438;19.026;2023-03-15T12:55:16;99112.56;;;7.80;55.13
54512;BME280;40419;47.438;19.026;2023-03-15T12:57:23;99102.25;;;7.90;55.42
54512;BME280;40419;47.438;19.026;2023-03-15T12:59:54;99113.84;;;7.91;54.31
54512;BME280;40419;47.438;19.026;2023-03-15T13:05:30;99110.78;;;8.14;53.46
54512;BME280;40419;47.438;19.026;2023-03-15T13:08:20;99111.63;;;8.28;53.63
54512;BME280;40419;47.438;19.026;2023-03-15T13:24:18;99142.94;;;8.15;49.98
54512;BME280;40419;47.438;19.026;2023-03-15T13:29:26;99150.03;;;8.43;51.34
54512;BME280;40419;47.438;19.026;2023-03-15T13:32:00;99139.66;;;8.33;49.03
54512;BME280;40419;47.438;19.026;2023-03-15T13:34:27;99152.94;;;8.35;49.04
54512;BME280;40419;47.438;19.026;2023-03-15T13:36:58;99149.81;;;8.38;47.42
54512;BME280;40419;47.438;19.026;2023-03-15T13:39:31;99156.84;;;8.19;46.69
54512;BME280;40419;47.438;19.026;2023-03-15T13:42:14;99153.72;;;8.22;47.55
54512;BME280;40419;47.438;19.026;2023-03-15T13:44:43;99157.06;;;8.38;46.60
54512;BME280;40419;47.438;19.026;2023-03-15T13:47:20;99161.84;;;8.42;47.72
54512;BME280;40419;47.438;19.026;2023-03-15T13:49:51;99173.47;;;8.36;48.65
54512;BME280;40419;47.438;19.026;2023-03-15T13:52:17;99176.69;;;7.98;45.74
54512;BME280;40419;47.438;19.026;2023-03-15T13:54:42;99173.84;;;8.13;47.07
54512;BME280;40419;47.438;19.026;2023-03-15T13:57:15;99172.09;;;7.85;46.68
54512;BME280;40419;47.438;19.026;2023-03-15T13:59:55;99181.06;;;7.99;46.02
54512;BME280;40419;47.438;19.026;2023-03-15T14:02:24;99189.81;;;8.08;47.89
54512;BME280;40419;47.438;19.026;2023-03-15T14:05:04;99183.91;;;7.84;47.60
54512;BME280;40419;47.438;19.026;2023-03-15T14:07:47;99193.47;;;7.93;47.16
54512;BME280;40419;47.438;19.026;2023-03-15T14:10:37;99194.00;;;7.69;47.12
54512;BME280;40419;47.438;19.026;2023-03-15T14:13:22;99196.56;;;7.84;46.35
54512;BME280;40419;47.438;19.026;2023-03-15T14:15:49;99198.53;;;7.68;47.43
54512;BME280;40419;47.438;19.026;2023-03-15T14:18:27;99208.72;;;7.66;46.69
54512;BME280;40419;47.438;19.026;2023-03-15T14:23:37;99201.91;;;7.35;47.49
54512;BME280;40419;47.438;19.026;2023-03-15T14:26:20;99220.81;;;7.42;45.26
54512;BME280;40419;47.438;19.026;2023-03-15T14:29:11;99227.41;;;7.39;45.83
54512;BME280;40419;47.438;19.026;2023-03-15T14:31:49;99227.78;;;7.30;47.15
54512;BME280;40419;47.438;19.026;2023-03-15T14:34:29;99227.63;;;7.09;46.02
54512;BME280;40419;47.438;19.026;2023-03-15T14:36:58;99231.97;;;7.10;46.83
54512;BME280;40419;47.438;19.026;2023-03-15T14:41:58;99221.66;;;7.14;46.23
54512;BME280;40419;47.438;19.026;2023-03-15T14:44:23;99219.38;;;7.11;46.21
54512;BME280;40419;47.438;19.026;2023-03-15T14:46:51;99221.09;;;6.97;47.37
54512;BME280;40419;47.438;19.026;2023-03-15T14:49:24;99225.78;;;7.10;47.19
54512;BME280;40419;47.438;19.026;2023-03-15T14:52:02;99238.84;;;7.13;46.35
54512;BME280;40419;47.438;19.026;2023-03-15T14:54:31;99240.91;;;6.89;45.69
54512;BME280;40419;47.438;19.026;2023-03-15T14:56:58;99249.25;;;6.95;47.09
54512;BME280;40419;47.438;19.026;2023-03-15T14:59:24;99245.41;;;7.04;46.50
54512;BME280;40419;47.438;19.026;2023-03-15T15:01:52;99248.16;;;6.89;45.80
54512;BME280;40419;47.438;19.026;2023-03-15T15:04:19;99245.41;;;6.82;47.23
54512;BME280;40419;47.438;19.026;2023-03-15T15:06:46;99259.56;;;6.91;47.08